createdAt,value
2018-03-11T20:14:16.047Z,49.25
2018-03-11T20:16:42.816Z,49.62
2018-03-11T20:19:09.738Z,49.78
2018-03-11T20:21:36.377Z,49.94
2018-03-11T20:24:02.982Z,49.83
2018-03-11T20:26:29.647Z,50.32
2018-03-11T20:28:56.284Z,50.13
2018-03-11T20:31:22.992Z,50.23
2018-03-11T20:33:49.579Z,49.29
2018-03-11T20:36:16.212Z,48.07
2018-03-11T20:38:42.808Z,48.70
2018-03-11T20:41:09.405Z,48.33
2018-03-11T20:43:36.102Z,49.72
2018-03-11T20:46:02.708Z,49.45
2018-03-11T20:48:29.316Z,49.34
2018-03-11T20:50:55.910Z,49.10
2018-03-11T20:53:22.519Z,48.94
2018-03-11T20:55:49.124Z,49.34
2018-03-11T20:58:15.740Z,49.77
2018-03-11T21:00:42.393Z,49.73
2018-03-11T21:03:09.032Z,49.76
2018-03-11T21:05:35.648Z,50.35
2018-03-11T21:08:02.288Z,51.01
2018-03-11T21:10:28.882Z,51.21
2018-03-11T21:12:55.506Z,50.90
2018-03-11T21:15:23.019Z,50.69
2018-03-11T21:17:49.623Z,50.48
2018-03-11T21:20:16.263Z,51.52
2018-03-11T21:22:42.852Z,51.68
2018-03-11T21:25:09.451Z,51.85
2018-03-11T21:27:36.072Z,52.04
2018-03-11T21:30:06.627Z,52.52
2018-03-11T21:32:33.221Z,52.83
2018-03-11T21:34:59.842Z,52.50
2018-03-11T21:37:26.451Z,52.88
2018-03-11T21:39:53.084Z,52.33
2018-03-11T21:42:19.726Z,52.42
2018-03-11T21:44:46.325Z,52.05
2018-03-11T21:47:12.942Z,52.41
2018-03-11T21:49:39.536Z,52.71
2018-03-11T21:52:06.149Z,52.43
2018-03-11T21:54:32.833Z,52.82
2018-03-11T21:56:59.420Z,52.72
2018-03-11T21:59:26.056Z,53.09
2018-03-11T22:01:52.703Z,53.50
2018-03-11T22:04:19.292Z,53.17
2018-03-11T22:06:45.889Z,53.55
2018-03-11T22:09:12.483Z,53.31
2018-03-11T22:11:39.069Z,53.64
2018-03-11T22:14:05.649Z,53.97
2018-03-11T22:16:32.236Z,53.40
2018-03-11T22:18:58.852Z,53.62
2018-03-11T22:21:25.446Z,53.74
2018-03-11T22:23:52.056Z,53.50
2018-03-11T22:26:18.677Z,53.88
2018-03-11T22:28:45.285Z,53.99
2018-03-11T22:31:11.900Z,53.84
2018-03-11T22:33:38.498Z,53.75
2018-03-11T22:36:05.095Z,53.75
2018-03-11T22:38:31.691Z,54.25
2018-03-11T22:40:58.286Z,54.49
2018-03-11T22:43:24.878Z,54.67
2018-03-11T22:45:51.473Z,54.79
2018-03-11T22:48:18.107Z,54.62
2018-03-11T22:50:44.715Z,54.33
2018-03-11T22:53:11.318Z,53.87
2018-03-11T22:55:37.908Z,54.21
2018-03-11T22:58:04.501Z,54.52
2018-03-11T23:00:31.148Z,54.16
2018-03-11T23:02:57.728Z,54.10
2018-03-11T23:05:24.328Z,54.67
2018-03-11T23:07:50.907Z,55.17
2018-03-11T23:10:17.492Z,54.52
2018-03-11T23:12:44.102Z,54.25
2018-03-11T23:15:10.701Z,54.66
2018-03-11T23:17:37.321Z,54.66
2018-03-11T23:20:03.915Z,54.65
2018-03-11T23:22:30.515Z,55.02
2018-03-11T23:24:57.096Z,54.60
2018-03-11T23:27:23.684Z,54.68
2018-03-11T23:29:50.280Z,54.72
2018-03-11T23:32:16.872Z,54.94
2018-03-11T23:34:43.480Z,54.99
2018-03-11T23:37:10.069Z,55.31
2018-03-11T23:39:36.669Z,55.69
2018-03-11T23:42:03.322Z,55.43
2018-03-11T23:44:29.919Z,55.53
2018-03-11T23:46:56.529Z,55.27
2018-03-11T23:49:23.128Z,54.90
2018-03-11T23:51:49.726Z,55.18
2018-03-11T23:54:16.316Z,55.96
2018-03-11T23:56:42.913Z,55.02
2018-03-11T23:59:09.599Z,54.47
